ADDS METAR Data INFO
IDs: Format: Raw Decoded Include TAF

Data at: 2233 UTC 23 May 2018

KVLD 232153Z 21008G14KT 170V240 10SM CLR 29/21 A3002 RMK AO2 LTG DSNT W SLP172 T02940211